createdAt,value
2023-03-13T00:00:12.615Z,20.77
2023-03-13T00:02:21.977Z,24.08
2023-03-13T00:04:29.962Z,21.42
2023-03-13T00:10:47.848Z,17.77
2023-03-13T00:12:53.545Z,24.52
2023-03-13T00:14:58.488Z,20.20
2023-03-13T00:17:03.723Z,27.60
2023-03-13T00:19:10.224Z,21.75
2023-03-13T00:21:19.337Z,19.52
2023-03-13T00:23:24.307Z,14.85
2023-03-13T00:25:29.281Z,26.38
2023-03-13T00:27:36.979Z,26.48
2023-03-13T00:29:43.124Z,15.50
2023-03-13T00:31:48.555Z,21.58
2023-03-13T00:33:59.830Z,18.88
2023-03-13T00:36:09.421Z,21.90
2023-03-13T00:38:16.930Z,25.67
2023-03-13T00:40:22.680Z,22.33
2023-03-13T00:42:30.257Z,30.52
2023-03-13T00:44:37.508Z,19.25
2023-03-13T00:46:44.841Z,13.43
2023-03-13T00:48:50.144Z,26.50
2023-03-13T00:50:56.073Z,18.88
2023-03-13T00:53:01.018Z,19.40
2023-03-13T00:55:12.964Z,21.38
2023-03-13T00:57:20.781Z,25.13
2023-03-13T00:59:25.764Z,19.00
2023-03-13T01:01:33.664Z,21.08
2023-03-13T01:05:46.111Z,25.77
2023-03-13T01:07:51.146Z,16.58
2023-03-13T01:09:57.081Z,21.80
2023-03-13T01:12:09.222Z,19.85
2023-03-13T01:14:19.195Z,20.25
2023-03-13T01:16:29.678Z,19.13
2023-03-13T01:18:38.706Z,16.42
2023-03-13T01:20:43.887Z,18.55
2023-03-13T01:22:49.494Z,22.75
2023-03-13T01:24:54.704Z,18.83
2023-03-13T01:26:59.872Z,16.20
2023-03-13T01:29:07.544Z,15.38
2023-03-13T01:33:23.217Z,17.35
2023-03-13T01:35:30.746Z,22.63
2023-03-13T01:37:37.362Z,16.00
2023-03-13T01:39:42.341Z,16.20
2023-03-13T01:41:47.981Z,20.90
2023-03-13T01:43:55.532Z,19.88
2023-03-13T01:48:48.042Z,15.63
2023-03-13T01:50:54.518Z,19.23
2023-03-13T01:53:03.834Z,13.68
2023-03-13T01:55:15.663Z,18.42
2023-03-13T01:57:30.093Z,12.35
2023-03-13T01:59:40.294Z,14.10
2023-03-13T02:01:50.539Z,15.05
2023-03-13T02:03:56.989Z,17.40
2023-03-13T02:06:03.588Z,11.18
2023-03-13T02:08:21.557Z,17.73
2023-03-13T02:10:29.668Z,13.55
2023-03-13T02:12:40.401Z,21.00
2023-03-13T02:14:52.022Z,9.75
2023-03-13T02:17:03.226Z,15.75
2023-03-13T02:19:23.068Z,18.67
2023-03-13T02:21:42.352Z,16.70
2023-03-13T02:23:59.134Z,16.65
2023-03-13T02:26:07.729Z,13.63
2023-03-13T02:28:20.379Z,18.27
2023-03-13T02:30:26.236Z,17.83
2023-03-13T02:32:33.650Z,17.13
2023-03-13T02:34:43.410Z,13.90
2023-03-13T02:36:50.526Z,18.02
2023-03-13T02:39:01.468Z,14.10
2023-03-13T02:41:11.384Z,19.08
2023-03-13T02:43:23.960Z,20.15
2023-03-13T02:45:29.606Z,12.32
2023-03-13T02:47:36.091Z,16.70
2023-03-13T02:49:41.168Z,10.50
2023-03-13T02:51:49.767Z,15.38
2023-03-13T02:54:00.185Z,15.05
2023-03-13T02:56:05.939Z,16.02
2023-03-13T02:58:13.550Z,12.82
2023-03-13T03:00:26.302Z,23.40
2023-03-13T03:02:33.785Z,15.65
2023-03-13T03:04:39.238Z,14.30
2023-03-13T03:06:44.345Z,13.55
2023-03-13T03:08:50.254Z,19.08
2023-03-13T03:10:55.309Z,18.75
2023-03-13T03:13:01.522Z,13.80
2023-03-13T03:15:12.083Z,17.73
2023-03-13T03:17:21.760Z,15.57
2023-03-13T03:19:26.771Z,15.23
2023-03-13T03:21:34.814Z,16.30
2023-03-13T03:23:40.389Z,11.05
2023-03-13T03:25:45.810Z,11.45
2023-03-13T03:27:51.058Z,13.27
2023-03-13T03:29:56.062Z,13.63
2023-03-13T03:32:03.906Z,12.32
2023-03-13T03:34:09.332Z,17.73
2023-03-13T03:36:17.634Z,17.80
2023-03-13T03:38:23.584Z,17.02
2023-03-13T03:40:32.644Z,13.77
2023-03-13T03:42:37.945Z,14.32
2023-03-13T03:44:43.157Z,17.73
2023-03-13T03:46:49.494Z,13.98
2023-03-13T03:48:59.499Z,14.75
2023-03-13T03:51:04.483Z,11.85
2023-03-13T03:53:11.657Z,13.70
2023-03-13T03:55:16.702Z,13.27
2023-03-13T03:57:22.434Z,15.65
2023-03-13T03:59:29.032Z,14.80
2023-03-13T04:01:36.486Z,12.93
2023-03-13T04:03:43.037Z,16.67
2023-03-13T04:05:52.199Z,17.85
2023-03-13T04:08:00.735Z,18.38
2023-03-13T04:10:09.584Z,17.67
2023-03-13T04:12:20.413Z,9.90
2023-03-13T04:14:29.440Z,15.00
2023-03-13T04:16:34.937Z,15.38
2023-03-13T04:18:40.148Z,13.90
2023-03-13T04:20:45.929Z,16.02
2023-03-13T04:22:54.124Z,13.20
2023-03-13T04:24:59.577Z,13.60
2023-03-13T04:27:08.593Z,18.50
2023-03-13T04:29:13.910Z,21.08
2023-03-13T04:31:39.913Z,16.42
2023-03-13T04:33:59.139Z,14.25
2023-03-13T04:36:29.731Z,20.73
2023-03-13T04:38:55.959Z,12.15
2023-03-13T04:41:16.442Z,17.25
2023-03-13T04:43:29.025Z,13.90
2023-03-13T04:45:46.595Z,14.80
2023-03-13T04:48:05.792Z,16.38
2023-03-13T04:50:23.170Z,10.20
2023-03-13T04:52:49.682Z,17.30
2023-03-13T04:55:16.275Z,12.70
2023-03-13T04:57:32.325Z,10.35
2023-03-13T04:59:57.650Z,11.48
2023-03-13T05:02:21.745Z,6.75
2023-03-13T05:04:45.352Z,11.35
2023-03-13T05:07:02.420Z,10.88
2023-03-13T05:09:41.405Z,9.25
2023-03-13T05:11:59.418Z,7.37
2023-03-13T05:14:24.108Z,6.65
2023-03-13T05:16:49.737Z,10.40
2023-03-13T05:19:32.289Z,9.18
2023-03-13T05:21:44.422Z,7.80
2023-03-13T05:24:12.031Z,13.85
2023-03-13T05:26:16.962Z,8.10
2023-03-13T05:28:50.596Z,6.45
2023-03-13T05:31:08.501Z,9.55
2023-03-13T05:33:41.147Z,12.57
2023-03-13T05:36:16.439Z,9.82
2023-03-13T05:38:34.227Z,10.57
2023-03-13T05:40:48.142Z,9.80
2023-03-13T05:43:15.689Z,7.37
2023-03-13T05:45:46.326Z,6.88
2023-03-13T05:48:10.552Z,8.55
2023-03-13T05:50:39.075Z,6.97
2023-03-13T05:53:12.731Z,7.35
2023-03-13T05:55:37.014Z,9.85
2023-03-13T05:58:16.790Z,5.68
2023-03-13T06:00:53.752Z,5.47
2023-03-13T06:03:15.404Z,6.95
2023-03-13T06:05:29.851Z,6.45
2023-03-13T06:07:39.257Z,7.20
2023-03-13T06:09:45.251Z,3.97
2023-03-13T06:11:50.512Z,7.93
2023-03-13T06:13:57.144Z,8.18
2023-03-13T06:16:26.316Z,7.25
2023-03-13T06:18:35.293Z,6.85
2023-03-13T06:20:42.552Z,6.78
2023-03-13T06:22:47.766Z,4.65
2023-03-13T06:24:52.788Z,9.50
2023-03-13T06:26:57.744Z,5.60
2023-03-13T06:29:03.943Z,3.17
2023-03-13T06:31:10.462Z,9.52
2023-03-13T06:33:18.116Z,4.72
2023-03-13T06:35:23.107Z,4.35
2023-03-13T06:37:28.138Z,5.22
2023-03-13T06:39:35.412Z,5.63
2023-03-13T06:41:44.885Z,5.03
2023-03-13T06:43:53.538Z,3.97
2023-03-13T06:45:58.473Z,3.28
2023-03-13T06:48:03.389Z,5.57
2023-03-13T06:50:13.965Z,9.15
2023-03-13T06:52:21.248Z,3.58
2023-03-13T06:54:28.479Z,3.45
2023-03-13T06:56:35.442Z,4.10
2023-03-13T06:58:40.554Z,3.90
2023-03-13T07:00:46.574Z,5.53
2023-03-13T07:02:51.810Z,5.88
2023-03-13T07:04:56.756Z,5.10
2023-03-13T07:07:04.273Z,3.55
2023-03-13T07:09:09.367Z,2.15
2023-03-13T07:11:18.245Z,4.65
2023-03-13T07:13:24.277Z,4.20
2023-03-13T07:15:29.262Z,2.38
2023-03-13T07:17:34.381Z,4.03
2023-03-13T07:19:43.005Z,2.92
2023-03-13T07:21:51.840Z,6.25
2023-03-13T07:23:59.326Z,2.83
2023-03-13T07:26:07.631Z,8.13
2023-03-13T07:28:12.580Z,5.38
2023-03-13T07:30:22.592Z,4.47
2023-03-13T07:32:27.774Z,6.45
2023-03-13T07:34:35.039Z,8.15
2023-03-13T07:36:41.563Z,4.88
2023-03-13T07:38:51.652Z,8.82
2023-03-13T07:41:01.245Z,6.00
2023-03-13T07:43:06.640Z,3.67
2023-03-13T07:45:14.519Z,4.35
2023-03-13T07:47:21.546Z,4.05
2023-03-13T07:49:26.703Z,6.28
2023-03-13T07:51:42.948Z,5.50
2023-03-13T07:53:50.536Z,4.65
2023-03-13T07:56:03.722Z,3.42
2023-03-13T07:58:08.662Z,6.32
2023-03-13T08:02:28.087Z,6.97
2023-03-13T08:04:36.460Z,4.35
2023-03-13T08:06:42.325Z,4.18
2023-03-13T08:08:47.991Z,3.17
2023-03-13T08:10:55.190Z,4.38
2023-03-13T08:13:02.741Z,5.65
2023-03-13T08:15:09.729Z,4.70
2023-03-13T08:17:16.472Z,2.78
2023-03-13T08:19:23.501Z,4.93
2023-03-13T08:21:31.493Z,5.95
2023-03-13T08:23:37.462Z,4.10
2023-03-13T08:25:42.428Z,4.65
2023-03-13T08:27:47.367Z,1.63
2023-03-13T08:29:57.613Z,3.97
2023-03-13T08:32:04.139Z,4.18
2023-03-13T08:34:11.406Z,2.78
2023-03-13T08:36:19.226Z,4.18
2023-03-13T08:40:29.426Z,3.92
2023-03-13T08:42:34.482Z,4.32
2023-03-13T08:44:39.642Z,4.00
2023-03-13T08:46:49.363Z,5.60
2023-03-13T08:48:55.541Z,1.90
2023-03-13T08:51:09.405Z,1.77
2023-03-13T08:53:14.420Z,2.53
2023-03-13T08:55:22.334Z,3.60
2023-03-13T08:57:27.442Z,2.95
2023-03-13T08:59:33.518Z,1.98
2023-03-13T09:01:40.846Z,1.45
2023-03-13T09:03:48.706Z,1.10
2023-03-13T09:08:01.919Z,1.75
2023-03-13T09:10:08.250Z,1.20
2023-03-13T09:12:29.661Z,3.97
2023-03-13T09:14:36.912Z,2.70
2023-03-13T09:16:42.308Z,2.35
2023-03-13T09:18:52.566Z,2.28
2023-03-13T09:20:58.826Z,3.85
2023-03-13T09:23:04.888Z,2.83
2023-03-13T09:25:11.650Z,4.30
2023-03-13T09:27:17.290Z,2.78
2023-03-13T09:29:23.819Z,5.22
2023-03-13T09:31:31.618Z,5.38
2023-03-13T09:33:36.908Z,1.52
2023-03-13T09:35:47.223Z,2.50
2023-03-13T09:37:52.589Z,2.10
2023-03-13T09:40:01.224Z,3.53
2023-03-13T09:42:17.549Z,2.90
2023-03-13T09:44:27.121Z,3.03
2023-03-13T09:46:45.286Z,4.55
2023-03-13T09:48:56.219Z,3.47
2023-03-13T09:51:15.385Z,4.35
2023-03-13T09:53:34.610Z,2.95
2023-03-13T09:55:44.958Z,4.45
2023-03-13T09:57:55.929Z,2.78
2023-03-13T10:00:12.460Z,3.78
2023-03-13T10:02:30.320Z,5.88
2023-03-13T10:04:45.841Z,3.15
2023-03-13T10:06:53.965Z,4.63
2023-03-13T10:09:01.517Z,3.80
2023-03-13T10:11:13.606Z,2.92
2023-03-13T10:13:25.932Z,4.60
2023-03-13T10:15:47.836Z,3.10
2023-03-13T10:17:52.784Z,3.78
2023-03-13T10:20:08.626Z,5.07
2023-03-13T10:22:22.977Z,1.85
2023-03-13T10:24:36.444Z,5.18
2023-03-13T10:26:43.630Z,3.78
2023-03-13T10:28:49.939Z,4.72
2023-03-13T10:31:04.884Z,3.88
2023-03-13T10:33:26.742Z,4.30
2023-03-13T10:35:37.919Z,2.75
2023-03-13T10:37:46.762Z,3.13
2023-03-13T10:39:54.107Z,3.13
2023-03-13T10:42:12.651Z,4.57
2023-03-13T10:44:21.241Z,3.72
2023-03-13T10:46:31.392Z,6.00
2023-03-13T10:48:40.419Z,11.02
2023-03-13T10:50:48.503Z,5.35
2023-03-13T10:52:57.534Z,2.55
2023-03-13T10:55:09.586Z,2.85
2023-03-13T10:57:31.616Z,2.60
2023-03-13T10:59:46.093Z,2.75
2023-03-13T11:01:54.432Z,3.45
2023-03-13T11:04:01.095Z,4.57
2023-03-13T11:06:08.524Z,2.80
2023-03-13T11:08:28.220Z,2.95
2023-03-13T11:10:37.166Z,5.70
2023-03-13T11:12:51.392Z,4.47
2023-03-13T11:15:01.073Z,3.20
2023-03-13T11:17:14.225Z,5.15
2023-03-13T11:19:53.687Z,3.70
2023-03-13T11:22:17.871Z,3.67
2023-03-13T11:24:34.739Z,4.95
2023-03-13T11:26:58.491Z,5.88
2023-03-13T11:29:20.649Z,5.50
2023-03-13T11:31:32.365Z,3.45
2023-03-13T11:33:53.413Z,3.58
2023-03-13T11:36:05.866Z,7.57
2023-03-13T11:38:21.154Z,3.00
2023-03-13T11:40:42.164Z,3.47
2023-03-13T11:43:25.566Z,3.83
2023-03-13T11:45:57.430Z,2.67
2023-03-13T11:48:12.339Z,4.47
2023-03-13T11:50:38.040Z,3.42
2023-03-13T11:53:22.644Z,3.67
2023-03-13T11:55:42.260Z,3.17
2023-03-13T11:57:58.582Z,5.60
2023-03-13T12:00:22.894Z,5.07
2023-03-13T12:02:36.130Z,4.32
2023-03-13T12:04:50.288Z,3.80
2023-03-13T12:07:04.788Z,4.03
2023-03-13T12:09:28.345Z,2.30
2023-03-13T12:11:43.923Z,4.90
2023-03-13T12:13:55.071Z,4.30
2023-03-13T12:16:03.831Z,4.60
2023-03-13T12:18:20.695Z,6.90
2023-03-13T12:20:30.861Z,3.90
2023-03-13T12:22:44.079Z,6.40
2023-03-13T12:24:56.430Z,5.20
2023-03-13T12:27:16.879Z,4.90
2023-03-13T12:29:42.614Z,2.95
2023-03-13T12:31:59.105Z,4.35
2023-03-13T12:34:15.348Z,4.43
2023-03-13T12:36:29.467Z,6.47
2023-03-13T12:38:41.844Z,3.28
2023-03-13T12:40:55.283Z,3.00
2023-03-13T12:43:08.992Z,3.47
2023-03-13T12:45:21.684Z,4.63
2023-03-13T12:47:34.880Z,3.60
2023-03-13T12:50:22.390Z,3.90
2023-03-13T12:53:21.567Z,10.02
2023-03-13T12:55:46.717Z,4.10
2023-03-13T12:58:29.422Z,4.07
2023-03-13T13:00:40.099Z,5.88
2023-03-13T13:02:48.084Z,7.28
2023-03-13T13:04:55.498Z,5.10
2023-03-13T13:07:03.336Z,7.03
2023-03-13T13:09:18.516Z,7.32
2023-03-13T13:11:49.962Z,10.77
2023-03-13T13:13:59.106Z,5.18
2023-03-13T13:16:10.226Z,4.72
2023-03-13T13:18:31.736Z,5.07
2023-03-13T13:20:45.054Z,5.18
2023-03-13T13:22:53.125Z,4.47
2023-03-13T13:25:00.677Z,5.10
2023-03-13T13:27:07.082Z,5.57
2023-03-13T13:29:57.127Z,3.00
2023-03-13T13:32:06.802Z,3.45
2023-03-13T13:34:34.432Z,3.00
2023-03-13T13:36:48.962Z,3.45
2023-03-13T13:38:55.448Z,4.32
2023-03-13T13:41:08.108Z,3.20
2023-03-13T13:43:26.189Z,5.82
2023-03-13T13:45:38.424Z,5.18
2023-03-13T13:47:44.691Z,3.42
2023-03-13T13:50:01.882Z,4.20
2023-03-13T13:52:40.944Z,5.68
2023-03-13T13:55:01.133Z,4.43
2023-03-13T13:57:15.419Z,3.80
2023-03-13T13:59:37.233Z,5.88
2023-03-13T14:01:46.488Z,4.72
2023-03-13T14:03:56.772Z,5.03
2023-03-13T14:06:06.729Z,3.95
2023-03-13T14:08:24.541Z,8.05
2023-03-13T14:10:46.827Z,3.67
2023-03-13T14:12:56.486Z,5.05
2023-03-13T14:15:20.040Z,4.75
2023-03-13T14:17:25.494Z,2.88
2023-03-13T14:19:32.715Z,4.10
2023-03-13T14:21:37.972Z,3.85
2023-03-13T14:23:48.388Z,2.85
2023-03-13T14:25:56.622Z,3.53
2023-03-13T14:28:03.118Z,3.75
2023-03-13T14:30:12.046Z,2.70
2023-03-13T14:32:23.384Z,5.25
2023-03-13T14:34:32.772Z,3.85
2023-03-13T14:36:50.798Z,7.32
2023-03-13T14:39:01.253Z,8.43
2023-03-13T14:41:06.648Z,4.95
2023-03-13T14:43:24.383Z,3.00
2023-03-13T14:45:33.254Z,5.13
2023-03-13T14:47:41.420Z,5.45
2023-03-13T14:49:51.064Z,4.38
2023-03-13T14:52:04.258Z,3.80
2023-03-13T14:54:34.274Z,2.83
2023-03-13T14:56:45.144Z,3.90
2023-03-13T14:58:51.628Z,3.13
2023-03-13T15:00:58.970Z,4.75
2023-03-13T15:03:31.824Z,2.85
2023-03-13T15:05:37.614Z,5.63
2023-03-13T15:07:45.567Z,5.13
2023-03-13T15:09:53.870Z,3.22
2023-03-13T15:12:01.756Z,4.20
2023-03-13T15:14:06.917Z,4.40
2023-03-13T15:16:20.369Z,2.63
2023-03-13T15:18:31.316Z,3.33
2023-03-13T15:20:38.203Z,3.63
2023-03-13T15:22:46.788Z,4.55
2023-03-13T15:25:05.631Z,4.20
2023-03-13T15:27:19.592Z,3.22
2023-03-13T15:29:24.578Z,4.78
2023-03-13T15:31:32.150Z,2.63
2023-03-13T15:33:38.128Z,5.40
2023-03-13T15:35:43.321Z,3.60
2023-03-13T15:37:48.904Z,2.97
2023-03-13T15:39:57.096Z,3.50
2023-03-13T15:42:02.307Z,3.88
2023-03-13T15:44:10.070Z,6.82
2023-03-13T15:46:17.107Z,6.22
2023-03-13T15:50:32.327Z,10.05
2023-03-13T15:52:38.368Z,10.73
2023-03-13T15:54:43.446Z,10.20
2023-03-13T15:56:55.157Z,45.67
2023-03-13T15:59:00.303Z,5.32
2023-03-13T16:01:05.611Z,2.67
2023-03-13T16:03:18.169Z,4.70
2023-03-13T16:05:23.354Z,3.95
2023-03-13T16:07:31.070Z,3.20
2023-03-13T16:11:42.834Z,3.13
2023-03-13T16:13:52.295Z,1.67
2023-03-13T16:15:58.359Z,3.03
2023-03-13T16:18:03.737Z,1.70
2023-03-13T16:20:18.654Z,2.92
2023-03-13T16:22:26.268Z,1.20
2023-03-13T16:24:31.309Z,0.95
2023-03-13T16:29:53.679Z,1.27
2023-03-13T16:31:59.142Z,0.57
2023-03-13T16:34:04.431Z,1.05
2023-03-13T16:36:17.972Z,2.45
2023-03-13T16:38:24.126Z,5.38
2023-03-13T16:40:34.451Z,3.38
2023-03-13T16:42:41.149Z,2.38
2023-03-13T16:44:46.314Z,1.10
2023-03-13T16:47:05.114Z,3.15
2023-03-13T16:49:18.738Z,1.63
2023-03-13T16:51:27.654Z,2.35
2023-03-13T16:53:34.852Z,4.47
2023-03-13T16:55:40.262Z,2.20
2023-03-13T16:57:45.777Z,4.35
2023-03-13T16:59:51.016Z,2.65
2023-03-13T17:01:58.925Z,4.25
2023-03-13T17:04:05.334Z,2.22
2023-03-13T17:06:19.017Z,1.98
2023-03-13T17:08:24.564Z,2.47
2023-03-13T17:10:35.053Z,2.83
2023-03-13T17:12:40.561Z,1.35
2023-03-13T17:14:46.407Z,1.80
2023-03-13T17:16:55.719Z,1.92
2023-03-13T17:19:07.610Z,4.30
2023-03-13T17:21:17.796Z,2.85
2023-03-13T17:23:25.840Z,3.20
2023-03-13T17:25:32.252Z,2.42
2023-03-13T17:27:39.100Z,3.15
2023-03-13T17:29:45.988Z,1.90
2023-03-13T17:31:52.160Z,3.47
2023-03-13T17:33:59.242Z,2.85
2023-03-13T17:36:17.124Z,3.35
2023-03-13T17:38:22.953Z,3.88
2023-03-13T17:40:32.864Z,2.63
2023-03-13T17:42:39.613Z,2.95
2023-03-13T17:44:45.063Z,2.08
2023-03-13T17:47:01.703Z,2.78
2023-03-13T17:49:07.833Z,2.03
2023-03-13T17:51:26.901Z,2.58
2023-03-13T17:53:32.330Z,4.07
2023-03-13T17:55:38.611Z,3.03
2023-03-13T17:57:47.920Z,2.03
2023-03-13T17:59:55.980Z,3.58
2023-03-13T18:04:11.357Z,3.03
2023-03-13T18:06:29.572Z,3.50
2023-03-13T18:08:34.705Z,3.22
2023-03-13T18:10:40.258Z,3.83
2023-03-13T18:12:48.025Z,3.17
2023-03-13T18:17:02.144Z,3.80
2023-03-13T18:19:08.452Z,2.92
2023-03-13T18:21:13.691Z,2.38
2023-03-13T18:23:23.800Z,3.13
2023-03-13T18:25:35.290Z,2.60
2023-03-13T18:27:40.445Z,3.10
2023-03-13T18:31:56.070Z,2.70
2023-03-13T18:34:02.430Z,3.00
2023-03-13T18:36:23.385Z,3.80
2023-03-13T18:38:32.642Z,2.80
2023-03-13T18:40:38.282Z,3.55
2023-03-13T18:42:45.011Z,3.03
2023-03-13T18:44:51.375Z,2.70
2023-03-13T18:47:00.027Z,3.42
2023-03-13T18:49:08.551Z,3.10
2023-03-13T18:51:17.723Z,2.60
2023-03-13T18:53:22.819Z,3.00
2023-03-13T18:55:39.332Z,3.88
2023-03-13T18:57:45.128Z,1.75
2023-03-13T18:59:50.678Z,2.28
2023-03-13T19:01:56.644Z,2.90
2023-03-13T19:04:02.683Z,3.78
2023-03-13T19:06:26.962Z,2.88
2023-03-13T19:08:32.205Z,2.92
2023-03-13T19:10:42.209Z,4.07
2023-03-13T19:12:49.631Z,3.45
2023-03-13T19:14:55.589Z,4.40
2023-03-13T19:17:01.273Z,3.78
2023-03-13T19:19:06.903Z,4.35
2023-03-13T19:21:20.096Z,2.63
2023-03-13T19:23:25.034Z,2.78
2023-03-13T19:25:34.528Z,3.03
2023-03-13T19:27:44.128Z,4.63
2023-03-13T19:29:50.071Z,3.90
2023-03-13T19:32:02.914Z,3.17
2023-03-13T19:34:08.937Z,5.47
2023-03-13T19:36:24.321Z,1.92
2023-03-13T19:38:32.412Z,5.10
2023-03-13T19:40:40.780Z,3.63
2023-03-13T19:42:48.967Z,3.65
2023-03-13T19:44:56.254Z,4.25
2023-03-13T19:47:04.522Z,4.13
2023-03-13T19:49:11.888Z,2.25
2023-03-13T19:51:19.050Z,3.40
2023-03-13T19:53:25.830Z,3.80
2023-03-13T19:55:31.397Z,2.92
2023-03-13T19:57:37.322Z,4.53
2023-03-13T19:59:45.748Z,3.13
2023-03-13T20:01:55.730Z,3.22
2023-03-13T20:04:01.873Z,2.72
2023-03-13T20:06:08.267Z,2.72
2023-03-13T20:08:19.206Z,4.18
2023-03-13T20:10:26.280Z,3.35
2023-03-13T20:12:31.771Z,2.95
2023-03-13T20:14:38.634Z,2.45
2023-03-13T20:16:51.298Z,3.20
2023-03-13T20:18:58.431Z,2.75
2023-03-13T20:21:03.750Z,3.42
2023-03-13T20:23:09.788Z,2.42
2023-03-13T20:25:18.583Z,1.48
2023-03-13T20:27:24.050Z,3.35
2023-03-13T20:29:33.226Z,3.10
2023-03-13T20:31:38.948Z,2.47
2023-03-13T20:33:47.048Z,2.63
2023-03-13T20:35:52.297Z,1.88
2023-03-13T20:38:02.161Z,2.83
2023-03-13T20:40:13.665Z,2.45
2023-03-13T20:42:20.910Z,1.58
2023-03-13T20:44:29.295Z,1.58
2023-03-13T20:46:41.479Z,1.70
2023-03-13T20:48:52.337Z,2.55
2023-03-13T20:51:02.193Z,1.13
2023-03-13T20:53:07.465Z,1.42
2023-03-13T20:55:13.293Z,1.35
2023-03-13T20:57:20.169Z,1.83
2023-03-13T20:59:26.607Z,1.17
2023-03-13T21:01:32.666Z,1.58
2023-03-13T21:03:40.524Z,1.52
2023-03-13T21:07:54.997Z,2.08
2023-03-13T21:12:11.271Z,3.13
2023-03-13T21:14:17.312Z,1.20
2023-03-13T21:16:28.405Z,1.55
2023-03-13T21:18:41.878Z,2.17
2023-03-13T21:20:52.883Z,1.55
2023-03-13T21:22:58.355Z,3.40
2023-03-13T21:25:05.018Z,1.35
2023-03-13T21:27:11.603Z,4.63
2023-03-13T21:29:17.073Z,2.45
2023-03-13T21:31:28.967Z,3.15
2023-03-13T21:33:36.525Z,3.72
2023-03-13T21:35:45.766Z,5.50
2023-03-13T21:37:53.295Z,3.50
2023-03-13T21:40:01.288Z,2.97
2023-03-13T21:42:06.624Z,1.73
2023-03-13T21:44:19.998Z,3.83
2023-03-13T21:46:33.392Z,3.20
2023-03-13T21:48:40.187Z,1.40
2023-03-13T21:50:47.089Z,1.77
2023-03-13T21:53:00.488Z,1.33
2023-03-13T21:55:05.785Z,1.83
2023-03-13T21:57:14.266Z,1.30
2023-03-13T21:59:21.938Z,1.52
2023-03-13T22:01:27.309Z,1.13
2023-03-13T22:03:32.907Z,2.45
2023-03-13T22:05:43.002Z,0.93
2023-03-13T22:07:48.098Z,1.08
2023-03-13T22:09:56.074Z,0.80
2023-03-13T22:14:10.984Z,1.48
2023-03-13T22:16:25.381Z,1.75
2023-03-13T22:18:34.737Z,3.38
2023-03-13T22:20:41.298Z,1.60
2023-03-13T22:22:49.676Z,1.52
2023-03-13T22:24:57.657Z,2.00
2023-03-13T22:27:03.757Z,0.90
2023-03-13T22:29:08.808Z,3.45
2023-03-13T22:31:14.920Z,0.90
2023-03-13T22:33:21.733Z,2.38
2023-03-13T22:35:27.255Z,1.08
2023-03-13T22:37:32.192Z,0.90
2023-03-13T22:39:37.111Z,1.05
2023-03-13T22:41:44.615Z,0.57
2023-03-13T22:43:49.796Z,0.82
2023-03-13T22:45:55.234Z,1.95
2023-03-13T22:48:06.446Z,0.90
2023-03-13T22:50:13.989Z,0.85
2023-03-13T22:52:19.272Z,1.77
2023-03-13T22:54:24.496Z,0.68
2023-03-13T22:56:30.057Z,0.88
2023-03-13T22:58:37.540Z,0.47
2023-03-13T23:00:42.736Z,0.70
2023-03-13T23:02:47.698Z,0.93
2023-03-13T23:04:58.713Z,1.17
2023-03-13T23:07:03.678Z,0.93
2023-03-13T23:09:09.324Z,0.68
2023-03-13T23:11:16.222Z,2.70
2023-03-13T23:13:21.134Z,0.98
2023-03-13T23:15:42.916Z,1.00
2023-03-13T23:17:55.547Z,1.10
2023-03-13T23:20:02.294Z,0.90
2023-03-13T23:22:07.533Z,0.50
2023-03-13T23:24:12.428Z,0.60
2023-03-13T23:26:19.332Z,0.80
2023-03-13T23:28:24.286Z,0.20
2023-03-13T23:30:32.349Z,0.63
2023-03-13T23:34:44.378Z,0.77
2023-03-13T23:36:50.115Z,1.48
2023-03-13T23:38:58.401Z,0.60
2023-03-13T23:41:09.517Z,1.35
2023-03-13T23:43:14.464Z,1.90
2023-03-13T23:45:20.623Z,0.50
2023-03-13T23:47:29.769Z,2.72
2023-03-13T23:49:35.092Z,1.05
2023-03-13T23:51:40.717Z,0.43
2023-03-13T23:53:46.352Z,1.08
2023-03-13T23:55:59.218Z,4.30
2023-03-13T23:58:05.757Z,1.13
